createdAt,value
2023-03-13T00:02:24.779Z,21.22
2023-03-13T00:05:13.810Z,20.86
2023-03-13T00:08:02.045Z,21.02
2023-03-13T00:10:47.721Z,20.84
2023-03-13T00:13:29.872Z,20.86
2023-03-13T00:16:24.735Z,20.58
2023-03-13T00:19:15.654Z,20.38
2023-03-13T00:22:04.529Z,20.23
2023-03-13T00:24:54.704Z,20.14
2023-03-13T00:27:50.556Z,20.13
2023-03-13T00:30:39.732Z,20.04
2023-03-13T00:33:28.664Z,20.02
2023-03-13T00:36:21.647Z,19.99
2023-03-13T00:39:11.667Z,20.04
2023-03-13T00:41:53.899Z,20.08
2023-03-13T00:44:43.862Z,20.00
2023-03-13T00:47:25.955Z,19.94
2023-03-13T00:50:14.619Z,19.86
2023-03-13T00:52:56.929Z,19.83
2023-03-13T00:55:45.963Z,19.82
2023-03-13T00:58:37.020Z,19.86
2023-03-13T01:01:25.695Z,19.75
2023-03-13T01:04:18.736Z,19.77
2023-03-13T01:07:00.930Z,19.74
2023-03-13T01:09:49.688Z,19.67
2023-03-13T01:12:31.933Z,19.64
2023-03-13T01:15:20.663Z,19.70
2023-03-13T01:18:03.042Z,19.66
2023-03-13T01:20:51.711Z,19.64
2023-03-13T01:23:36.939Z,19.60
2023-03-13T01:26:25.631Z,19.66
2023-03-13T01:29:20.655Z,19.67
2023-03-13T01:32:09.697Z,19.68
2023-03-13T01:34:58.632Z,19.69
2023-03-13T01:37:47.649Z,19.71
2023-03-13T01:40:29.983Z,19.73
2023-03-13T01:43:39.705Z,19.82
2023-03-13T01:46:32.675Z,19.95
2023-03-13T01:49:37.732Z,19.97
2023-03-13T01:52:36.991Z,19.98
2023-03-13T01:55:45.695Z,20.09
2023-03-13T01:58:28.983Z,20.17
2023-03-13T02:01:17.710Z,20.37
2023-03-13T02:04:00.047Z,20.34
2023-03-13T02:06:51.744Z,20.51
2023-03-13T02:09:43.704Z,20.53
2023-03-13T02:12:44.997Z,20.55
2023-03-13T02:15:30.138Z,20.65
2023-03-13T02:18:20.615Z,20.81
2023-03-13T02:21:16.678Z,21.02
2023-03-13T02:24:28.039Z,21.22
2023-03-13T02:27:10.971Z,21.47
2023-03-13T02:30:01.012Z,22.06
2023-03-13T02:32:43.707Z,22.43
2023-03-13T02:35:26.168Z,22.89
2023-03-13T02:38:20.745Z,22.94
2023-03-13T02:41:04.187Z,22.36
2023-03-13T02:43:53.724Z,23.05
2023-03-13T02:46:56.073Z,24.22
2023-03-13T02:49:38.706Z,23.91
2023-03-13T02:52:27.627Z,24.34
2023-03-13T02:55:19.417Z,24.66
2023-03-13T02:58:08.778Z,25.02
2023-03-13T03:00:50.943Z,24.93
2023-03-13T03:03:39.764Z,25.58
2023-03-13T03:06:28.641Z,25.61
2023-03-13T03:09:20.733Z,25.85
2023-03-13T03:12:14.739Z,26.06
2023-03-13T03:14:56.988Z,25.57
2023-03-13T03:17:47.641Z,25.08
2023-03-13T03:20:37.773Z,24.77
2023-03-13T03:23:21.013Z,24.49
2023-03-13T03:26:10.628Z,24.72
2023-03-13T03:28:59.749Z,24.82
2023-03-13T03:31:41.920Z,24.81
2023-03-13T03:34:30.893Z,24.85
2023-03-13T03:37:18.911Z,24.79
2023-03-13T03:40:01.769Z,24.90
2023-03-13T03:42:49.933Z,25.01
2023-03-13T03:45:32.720Z,24.90
2023-03-13T03:48:14.914Z,25.19
2023-03-13T03:51:03.715Z,25.24
2023-03-13T03:53:57.017Z,25.50
2023-03-13T03:56:41.677Z,25.52
2023-03-13T03:59:29.968Z,25.48
2023-03-13T04:02:15.721Z,25.93
2023-03-13T04:05:04.681Z,25.64
2023-03-13T04:07:55.652Z,26.09
2023-03-13T04:10:45.693Z,26.31
2023-03-13T04:13:30.932Z,25.92
2023-03-13T04:16:19.740Z,25.99
2023-03-13T04:19:03.991Z,25.97
2023-03-13T04:21:52.689Z,26.36
2023-03-13T04:24:35.023Z,26.62
2023-03-13T04:27:24.742Z,26.07
2023-03-13T04:30:20.624Z,25.89
2023-03-13T04:33:29.347Z,26.10
2023-03-13T04:36:30.906Z,26.27
2023-03-13T04:39:27.061Z,25.97
2023-03-13T04:42:33.735Z,26.31
2023-03-13T04:45:40.847Z,26.22
2023-03-13T04:48:41.501Z,26.14
2023-03-13T04:51:47.278Z,26.48
2023-03-13T04:54:54.658Z,26.71
2023-03-13T04:58:00.391Z,27.12
2023-03-13T05:01:00.792Z,26.82
2023-03-13T05:04:06.109Z,27.35
2023-03-13T05:07:12.709Z,27.59
2023-03-13T05:10:24.631Z,27.31
2023-03-13T05:13:39.731Z,27.18
2023-03-13T05:16:41.907Z,27.81
2023-03-13T05:20:02.738Z,27.66
2023-03-13T05:23:07.892Z,27.78
2023-03-13T05:26:31.756Z,27.64
2023-03-13T05:29:26.524Z,27.68
2023-03-13T05:32:21.702Z,28.26
2023-03-13T05:35:24.092Z,28.64
2023-03-13T05:38:28.099Z,28.72
2023-03-13T05:41:33.064Z,28.83
2023-03-13T05:44:40.654Z,29.65
2023-03-13T05:47:36.122Z,29.61
2023-03-13T05:50:48.684Z,29.18
2023-03-13T05:53:57.681Z,29.48
2023-03-13T05:56:58.834Z,29.61
2023-03-13T06:00:05.762Z,29.58
2023-03-13T06:03:06.959Z,29.66
2023-03-13T06:05:57.660Z,29.75
2023-03-13T06:08:59.922Z,29.67
2023-03-13T06:11:50.782Z,29.85
2023-03-13T06:14:32.841Z,30.24
2023-03-13T06:17:42.636Z,30.09
2023-03-13T06:20:31.019Z,30.23
2023-03-13T06:23:14.000Z,30.45
2023-03-13T06:26:02.965Z,30.34
2023-03-13T06:28:57.701Z,30.79
2023-03-13T06:31:47.144Z,30.70
2023-03-13T06:34:30.865Z,30.38
2023-03-13T06:37:18.987Z,30.60
2023-03-13T06:40:01.639Z,30.81
2023-03-13T06:42:51.020Z,30.84
2023-03-13T06:45:33.684Z,30.85
2023-03-13T06:48:16.028Z,31.03
2023-03-13T06:51:05.632Z,30.84
2023-03-13T06:53:55.669Z,30.91
2023-03-13T06:56:44.728Z,31.09
2023-03-13T06:59:26.928Z,31.31
2023-03-13T07:02:15.644Z,31.15
2023-03-13T07:05:06.896Z,31.01
2023-03-13T07:07:49.653Z,30.62
2023-03-13T07:10:41.126Z,30.51
2023-03-13T07:13:23.633Z,30.62
2023-03-13T07:16:52.077Z,30.46
2023-03-13T07:19:41.733Z,30.67
2023-03-13T07:22:24.305Z,30.59
2023-03-13T07:25:13.750Z,30.55
2023-03-13T07:27:59.010Z,30.90
2023-03-13T07:30:47.762Z,30.89
2023-03-13T07:33:29.942Z,30.81
2023-03-13T07:36:20.753Z,30.94
2023-03-13T07:39:02.946Z,30.89
2023-03-13T07:41:51.743Z,30.89
2023-03-13T07:44:33.968Z,30.75
2023-03-13T07:47:22.756Z,30.79
2023-03-13T07:50:05.430Z,30.84
2023-03-13T07:52:54.682Z,30.81
2023-03-13T07:55:36.964Z,30.77
2023-03-13T07:58:25.661Z,30.88
2023-03-13T08:01:09.000Z,30.67
2023-03-13T08:04:02.096Z,30.63
2023-03-13T08:06:43.987Z,30.75
2023-03-13T08:09:32.768Z,30.63
2023-03-13T08:12:15.936Z,30.59
2023-03-13T08:15:04.663Z,30.74
2023-03-13T08:17:59.534Z,30.70
2023-03-13T08:20:48.671Z,30.69
2023-03-13T08:23:31.028Z,30.63
2023-03-13T08:26:25.743Z,30.56
2023-03-13T08:29:11.033Z,30.60
2023-03-13T08:32:00.699Z,30.60
2023-03-13T08:34:42.881Z,30.44
2023-03-13T08:37:31.748Z,30.33
2023-03-13T08:40:15.120Z,30.40
2023-03-13T08:43:03.693Z,30.49
2023-03-13T08:45:46.008Z,30.43
2023-03-13T08:48:34.674Z,30.50
2023-03-13T08:51:18.934Z,30.53
2023-03-13T08:54:07.790Z,30.39
2023-03-13T08:56:50.116Z,30.42
2023-03-13T08:59:38.669Z,30.49
2023-03-13T09:02:28.701Z,30.38
2023-03-13T09:05:17.913Z,30.31
2023-03-13T09:08:01.614Z,30.26
2023-03-13T09:10:49.935Z,30.23
2023-03-13T09:13:35.908Z,30.28
2023-03-13T09:16:27.936Z,30.29
2023-03-13T09:19:16.707Z,30.28
2023-03-13T09:21:59.004Z,30.23
2023-03-13T09:24:49.078Z,30.16
2023-03-13T09:27:31.017Z,30.23
2023-03-13T09:30:19.638Z,30.15
2023-03-13T09:33:02.120Z,30.23
2023-03-13T09:35:51.704Z,30.28
2023-03-13T09:38:36.220Z,30.29
2023-03-13T09:41:48.937Z,30.30
2023-03-13T09:44:45.553Z,30.29
2023-03-13T09:47:49.723Z,30.13
2023-03-13T09:50:41.984Z,30.13
2023-03-13T09:54:04.498Z,30.16
2023-03-13T09:57:04.941Z,30.16
2023-03-13T10:00:08.824Z,30.18
2023-03-13T10:03:20.983Z,30.12
2023-03-13T10:06:37.662Z,30.03
2023-03-13T10:09:41.972Z,30.04
2023-03-13T10:12:37.726Z,30.01
2023-03-13T10:15:51.037Z,30.06
2023-03-13T10:18:40.708Z,30.01
2023-03-13T10:21:27.041Z,29.94
2023-03-13T10:24:45.666Z,29.78
2023-03-13T10:27:27.930Z,29.63
2023-03-13T10:30:28.870Z,29.46
2023-03-13T10:33:16.888Z,29.41
2023-03-13T10:36:23.673Z,29.41
2023-03-13T10:39:05.946Z,29.40
2023-03-13T10:41:56.823Z,29.34
2023-03-13T10:44:40.963Z,29.30
2023-03-13T10:47:29.733Z,29.25
2023-03-13T10:50:13.000Z,29.21
2023-03-13T10:53:02.632Z,29.14
2023-03-13T10:55:51.934Z,29.08
2023-03-13T10:58:50.688Z,29.05
2023-03-13T11:01:48.958Z,29.06
2023-03-13T11:04:41.670Z,29.04
2023-03-13T11:07:29.947Z,29.02
2023-03-13T11:10:31.699Z,28.97
2023-03-13T11:13:13.992Z,28.98
2023-03-13T11:16:21.828Z,28.90
2023-03-13T11:19:16.283Z,28.75
2023-03-13T11:22:23.724Z,28.73
2023-03-13T11:25:28.931Z,28.68
2023-03-13T11:28:22.677Z,28.63
2023-03-13T11:31:14.042Z,28.55
2023-03-13T11:34:23.642Z,28.55
2023-03-13T11:37:20.428Z,28.61
2023-03-13T11:40:28.649Z,28.55
2023-03-13T11:43:27.934Z,28.54
2023-03-13T11:47:05.712Z,28.47
2023-03-13T11:50:04.979Z,28.43
2023-03-13T11:53:11.751Z,28.40
2023-03-13T11:56:18.391Z,28.32
2023-03-13T11:59:28.618Z,28.26
2023-03-13T12:02:26.086Z,28.18
2023-03-13T12:05:23.080Z,28.09
2023-03-13T12:08:18.948Z,28.02
2023-03-13T12:11:39.670Z,27.99
2023-03-13T12:14:37.928Z,27.93
2023-03-13T12:17:55.768Z,27.89
2023-03-13T12:20:54.618Z,27.79
2023-03-13T12:24:02.825Z,27.69
2023-03-13T12:27:15.663Z,27.65
2023-03-13T12:30:25.901Z,27.56
2023-03-13T12:33:32.711Z,27.47
2023-03-13T12:36:27.456Z,27.50
2023-03-13T12:40:02.029Z,27.46
2023-03-13T12:43:19.987Z,27.40
2023-03-13T12:46:14.738Z,27.37
2023-03-13T12:48:59.997Z,27.29
2023-03-13T12:52:05.805Z,27.19
2023-03-13T12:54:54.012Z,27.14
2023-03-13T12:58:15.624Z,27.03
2023-03-13T13:01:00.060Z,26.93
2023-03-13T13:03:59.736Z,26.86
2023-03-13T13:07:09.600Z,26.87
2023-03-13T13:10:35.323Z,26.76
2023-03-13T13:13:26.464Z,26.66
2023-03-13T13:16:25.765Z,26.70
2023-03-13T13:19:33.452Z,26.63
2023-03-13T13:22:45.603Z,26.51
2023-03-13T13:25:37.044Z,26.47
2023-03-13T13:28:36.717Z,26.46
2023-03-13T13:32:05.312Z,26.32
2023-03-13T13:35:06.677Z,26.37
2023-03-13T13:37:56.920Z,26.29
2023-03-13T13:40:40.703Z,26.30
2023-03-13T13:43:25.914Z,26.34
2023-03-13T13:46:16.688Z,26.34
2023-03-13T13:49:15.656Z,26.32
2023-03-13T13:52:21.266Z,26.36
2023-03-13T13:55:10.647Z,26.25
2023-03-13T13:57:53.937Z,26.20
2023-03-13T14:00:53.660Z,26.20
2023-03-13T14:03:43.185Z,26.01
2023-03-13T14:06:38.643Z,25.75
2023-03-13T14:09:49.060Z,25.59
2023-03-13T14:12:39.814Z,25.46
2023-03-13T14:15:30.027Z,25.30
2023-03-13T14:18:24.717Z,25.13
2023-03-13T14:21:23.601Z,25.04
2023-03-13T14:24:21.590Z,25.02
2023-03-13T14:27:03.920Z,24.94
2023-03-13T14:30:16.721Z,24.85
2023-03-13T14:33:00.291Z,24.86
2023-03-13T14:35:50.765Z,24.78
2023-03-13T14:38:35.082Z,24.67
2023-03-13T14:41:40.653Z,24.55
2023-03-13T14:44:36.988Z,24.43
2023-03-13T14:47:33.701Z,24.41
2023-03-13T14:50:21.873Z,24.39
2023-03-13T14:53:19.821Z,24.30
2023-03-13T14:56:23.244Z,24.25
2023-03-13T14:59:32.628Z,24.21
2023-03-13T15:02:24.222Z,24.21
2023-03-13T15:05:17.680Z,24.16
2023-03-13T15:08:01.957Z,24.10
2023-03-13T15:10:51.770Z,24.03
2023-03-13T15:13:43.974Z,24.00
2023-03-13T15:16:34.787Z,23.94
2023-03-13T15:19:29.526Z,23.92
2023-03-13T15:22:24.012Z,23.92
2023-03-13T15:25:07.905Z,23.87
2023-03-13T15:27:57.733Z,23.86
2023-03-13T15:30:39.919Z,23.83
2023-03-13T15:33:30.673Z,23.76
2023-03-13T15:36:13.190Z,23.80
2023-03-13T15:39:01.691Z,23.81
2023-03-13T15:41:44.126Z,23.77
2023-03-13T15:44:32.730Z,23.67
2023-03-13T15:47:18.940Z,23.69
2023-03-13T15:50:07.614Z,23.66
2023-03-13T15:52:49.983Z,23.61
2023-03-13T15:55:40.599Z,23.58
2023-03-13T15:58:23.099Z,23.52
2023-03-13T16:01:11.794Z,23.43
2023-03-13T16:03:54.271Z,23.41
2023-03-13T16:06:43.688Z,23.39
2023-03-13T16:09:26.034Z,23.35
2023-03-13T16:12:15.605Z,23.37
2023-03-13T16:15:04.675Z,23.34
2023-03-13T16:17:59.561Z,23.33
2023-03-13T16:20:54.741Z,23.32
2023-03-13T16:23:42.985Z,23.24
2023-03-13T16:26:32.030Z,23.19
2023-03-13T16:29:23.107Z,23.27
2023-03-13T16:32:05.606Z,23.23
2023-03-13T16:34:54.441Z,23.14
2023-03-13T16:37:37.653Z,23.08
2023-03-13T16:40:33.080Z,23.01
2023-03-13T16:43:14.665Z,23.02
2023-03-13T16:46:07.424Z,22.98
2023-03-13T16:48:50.713Z,22.92
2023-03-13T16:51:39.983Z,22.94
2023-03-13T16:54:22.690Z,22.90
2023-03-13T16:57:10.994Z,22.83
2023-03-13T16:59:53.653Z,22.80
2023-03-13T17:02:38.522Z,22.72
2023-03-13T17:05:27.640Z,22.66
2023-03-13T17:08:19.962Z,22.70
2023-03-13T17:11:01.616Z,22.78
2023-03-13T17:13:52.088Z,22.90
2023-03-13T17:16:40.658Z,23.11
2023-03-13T17:19:36.485Z,23.30
2023-03-13T17:22:26.631Z,23.28
2023-03-13T17:25:09.079Z,23.61
2023-03-13T17:27:57.619Z,23.61
2023-03-13T17:30:41.845Z,23.34
2023-03-13T17:33:30.634Z,23.39
2023-03-13T17:36:28.149Z,23.63
2023-03-13T17:39:21.579Z,23.65
2023-03-13T17:42:06.596Z,23.64
2023-03-13T17:44:55.917Z,23.57
2023-03-13T17:47:38.246Z,23.50
2023-03-13T17:50:30.638Z,23.52
2023-03-13T17:53:12.939Z,23.27
2023-03-13T17:56:01.637Z,23.08
2023-03-13T17:58:45.543Z,23.08
2023-03-13T18:01:39.639Z,23.55
2023-03-13T18:04:28.608Z,23.36
2023-03-13T18:07:53.275Z,23.25
2023-03-13T18:10:37.870Z,23.13
2023-03-13T18:13:26.592Z,23.04
2023-03-13T18:16:08.907Z,22.95
2023-03-13T18:19:03.619Z,22.92
2023-03-13T18:22:10.488Z,23.01
2023-03-13T18:24:59.650Z,23.00
2023-03-13T18:27:42.306Z,23.00
2023-03-13T18:30:32.622Z,22.83
2023-03-13T18:33:17.603Z,22.65
2023-03-13T18:36:06.603Z,22.58
2023-03-13T18:38:49.911Z,22.47
2023-03-13T18:41:38.598Z,22.46
2023-03-13T18:44:21.977Z,22.40
2023-03-13T18:47:21.866Z,22.23
2023-03-13T18:50:04.430Z,22.11
2023-03-13T18:52:53.677Z,22.08
2023-03-13T18:55:38.173Z,21.99
2023-03-13T18:58:26.609Z,21.98
2023-03-13T19:01:08.995Z,21.89
2023-03-13T19:03:59.432Z,21.88
2023-03-13T19:06:44.151Z,21.85
2023-03-13T19:09:43.261Z,21.85
2023-03-13T19:12:25.911Z,21.84
2023-03-13T19:15:14.671Z,21.85
2023-03-13T19:17:57.217Z,21.83
2023-03-13T19:20:51.631Z,21.74
2023-03-13T19:23:33.828Z,21.65
2023-03-13T19:26:31.677Z,21.67
2023-03-13T19:29:30.908Z,21.79
2023-03-13T19:32:14.645Z,22.03
2023-03-13T19:34:56.795Z,21.76
2023-03-13T19:37:45.650Z,21.57
2023-03-13T19:40:34.846Z,21.86
2023-03-13T19:43:16.612Z,21.70
2023-03-13T19:46:04.868Z,21.56
2023-03-13T19:48:47.058Z,21.57
2023-03-13T19:51:37.890Z,21.53
2023-03-13T19:54:20.608Z,21.49
2023-03-13T19:57:02.921Z,21.45
2023-03-13T19:59:54.325Z,21.46
2023-03-13T20:02:37.001Z,21.56
2023-03-13T20:05:25.640Z,21.92
2023-03-13T20:08:07.624Z,21.89
2023-03-13T20:10:55.896Z,21.77
2023-03-13T20:13:38.660Z,21.64
2023-03-13T20:16:24.630Z,21.86
2023-03-13T20:19:14.634Z,21.87
2023-03-13T20:22:03.565Z,21.75
2023-03-13T20:24:52.618Z,21.77
2023-03-13T20:27:34.934Z,21.70
2023-03-13T20:30:24.697Z,21.56
2023-03-13T20:33:13.047Z,21.52
2023-03-13T20:35:54.708Z,21.46
2023-03-13T20:38:43.644Z,21.31
2023-03-13T20:41:36.813Z,21.24
2023-03-13T20:44:24.908Z,21.18
2023-03-13T20:47:07.649Z,21.18
2023-03-13T20:49:49.772Z,21.29
2023-03-13T20:52:38.612Z,21.35
2023-03-13T20:55:27.630Z,21.63
2023-03-13T20:58:09.888Z,21.79
2023-03-13T21:00:58.880Z,21.61
2023-03-13T21:03:40.954Z,21.48
2023-03-13T21:06:29.618Z,21.32
2023-03-13T21:09:11.893Z,21.23
2023-03-13T21:12:00.612Z,21.22
2023-03-13T21:14:43.536Z,21.48
2023-03-13T21:17:33.643Z,21.61
2023-03-13T21:20:29.506Z,21.52
2023-03-13T21:23:18.638Z,21.28
2023-03-13T21:26:01.960Z,21.43
2023-03-13T21:28:50.613Z,21.34
2023-03-13T21:31:32.952Z,21.45
2023-03-13T21:34:21.681Z,21.18
2023-03-13T21:37:03.912Z,21.05
2023-03-13T21:39:53.609Z,21.32
2023-03-13T21:42:37.113Z,21.14
2023-03-13T21:45:25.615Z,21.15
2023-03-13T21:48:08.949Z,20.97
2023-03-13T21:51:00.593Z,20.79
2023-03-13T21:53:45.461Z,20.73
2023-03-13T21:56:34.683Z,20.71
2023-03-13T21:59:18.134Z,20.57
2023-03-13T22:02:06.630Z,20.44
2023-03-13T22:04:48.945Z,20.41
2023-03-13T22:07:38.672Z,20.39
2023-03-13T22:10:27.565Z,20.35
2023-03-13T22:13:18.570Z,20.30
2023-03-13T22:16:03.752Z,20.31
2023-03-13T22:18:52.654Z,20.22
2023-03-13T22:21:41.671Z,20.19
2023-03-13T22:24:23.931Z,20.17
2023-03-13T22:27:12.676Z,20.17
2023-03-13T22:30:01.652Z,20.14
2023-03-13T22:32:43.924Z,20.15
2023-03-13T22:35:32.674Z,20.08
2023-03-13T22:38:14.889Z,20.05
2023-03-13T22:41:14.632Z,20.06
2023-03-13T22:43:56.883Z,19.98
2023-03-13T22:46:45.660Z,19.84
2023-03-13T22:49:27.882Z,19.80
2023-03-13T22:52:16.683Z,19.77
2023-03-13T22:54:58.991Z,19.82
2023-03-13T22:57:47.559Z,19.86
2023-03-13T23:00:29.897Z,19.78
2023-03-13T23:03:18.764Z,19.74
2023-03-13T23:06:07.529Z,19.71
2023-03-13T23:08:57.034Z,19.80
2023-03-13T23:11:42.042Z,19.80
2023-03-13T23:14:30.672Z,19.73
2023-03-13T23:17:12.878Z,19.73
2023-03-13T23:20:01.575Z,19.77
2023-03-13T23:22:50.590Z,19.70
2023-03-13T23:25:38.979Z,19.72
2023-03-13T23:28:21.673Z,19.71
2023-03-13T23:31:30.936Z,19.66
2023-03-13T23:34:13.549Z,19.61
2023-03-13T23:37:01.932Z,19.62
2023-03-13T23:39:43.628Z,19.57
2023-03-13T23:42:32.118Z,19.57
2023-03-13T23:45:14.585Z,19.61
2023-03-13T23:48:03.907Z,19.71
2023-03-13T23:50:46.635Z,19.68
2023-03-13T23:53:34.912Z,19.71
2023-03-13T23:56:18.585Z,19.70
2023-03-13T23:59:07.869Z,19.67
